createdAt,value
2018-02-12T00:00:25.632Z,5.43
2018-02-12T00:03:00.792Z,7.20
2018-02-12T00:05:35.658Z,7.20
2018-02-12T00:08:09.536Z,5.93
2018-02-12T00:10:44.037Z,9.97
2018-02-12T00:13:18.696Z,6.93
2018-02-12T00:15:54.447Z,5.53
2018-02-12T00:18:28.193Z,8.03
2018-02-12T00:21:02.790Z,5.13
2018-02-12T00:23:37.445Z,9.60
2018-02-12T00:26:12.319Z,3.77
2018-02-12T00:28:47.045Z,7.93
2018-02-12T00:31:21.718Z,8.10
2018-02-12T00:33:55.500Z,5.07
2018-02-12T00:36:29.350Z,6.33
2018-02-12T00:39:03.515Z,8.40
2018-02-12T00:41:37.561Z,5.20
2018-02-12T00:44:11.834Z,7.37
2018-02-12T00:46:46.780Z,10.80
2018-02-12T00:49:22.206Z,6.77
2018-02-12T00:51:56.434Z,9.30
2018-02-12T00:54:30.305Z,6.97
2018-02-12T00:57:04.768Z,6.10
2018-02-12T00:59:39.468Z,9.23
2018-02-12T01:02:13.794Z,4.37
2018-02-12T01:04:47.875Z,6.03
2018-02-12T01:07:21.587Z,5.53
2018-02-12T01:09:55.719Z,6.30
2018-02-12T01:12:29.942Z,5.27
2018-02-12T01:15:05.025Z,5.47
2018-02-12T01:17:39.996Z,3.90
2018-02-12T01:20:14.318Z,4.23
2018-02-12T01:22:48.421Z,7.60
2018-02-12T01:25:22.547Z,4.90
2018-02-12T01:27:57.561Z,5.03
2018-02-12T01:30:32.187Z,6.20
2018-02-12T01:33:06.761Z,4.90
2018-02-12T01:35:41.730Z,4.37
2018-02-12T01:38:16.661Z,6.27
2018-02-12T01:40:51.592Z,5.00
2018-02-12T01:43:25.629Z,4.67
2018-02-12T01:45:59.421Z,6.77
2018-02-12T01:48:33.403Z,6.90
2018-02-12T01:51:07.859Z,4.73
2018-02-12T01:53:41.905Z,5.80
2018-02-12T01:56:16.012Z,8.60
2018-02-12T01:58:50.218Z,5.93
2018-02-12T02:01:25.261Z,4.70
2018-02-12T02:03:59.550Z,11.00
2018-02-12T02:06:33.526Z,9.43
2018-02-12T02:09:07.560Z,7.60
2018-02-12T02:11:41.937Z,3.97
2018-02-12T02:14:15.877Z,5.20
2018-02-12T02:16:50.595Z,5.30
2018-02-12T02:19:24.366Z,6.87
2018-02-12T02:21:58.335Z,8.33
2018-02-12T02:24:32.511Z,10.63
2018-02-12T02:27:07.202Z,7.63
2018-02-12T02:29:41.341Z,8.57
2018-02-12T02:32:16.405Z,5.37
2018-02-12T02:34:50.522Z,5.97
2018-02-12T02:37:24.445Z,4.97
2018-02-12T02:39:58.415Z,3.00
2018-02-12T02:42:32.114Z,3.60
2018-02-12T02:45:07.131Z,6.40
2018-02-12T02:47:40.989Z,4.83
2018-02-12T02:50:14.832Z,5.13
2018-02-12T02:52:48.903Z,4.10
2018-02-12T02:55:23.715Z,3.67
2018-02-12T02:57:57.575Z,5.63
2018-02-12T03:00:32.249Z,4.10
2018-02-12T03:03:06.956Z,2.80
2018-02-12T03:05:40.877Z,4.93
2018-02-12T03:08:14.678Z,4.53
2018-02-12T03:10:49.512Z,6.47
2018-02-12T03:13:23.365Z,4.27
2018-02-12T03:15:57.311Z,4.40
2018-02-12T03:18:45.883Z,2.90
2018-02-12T03:21:19.945Z,7.03
2018-02-12T03:23:54.196Z,3.20
2018-02-12T03:26:28.022Z,3.37
2018-02-12T03:29:01.904Z,3.30
2018-02-12T03:31:36.031Z,3.30
2018-02-12T03:34:10.097Z,4.60
2018-02-12T03:36:45.130Z,3.00
2018-02-12T03:39:19.917Z,3.30
2018-02-12T03:41:53.614Z,4.87
2018-02-12T03:44:28.382Z,5.13
2018-02-12T03:47:03.260Z,4.77
2018-02-12T03:49:38.101Z,3.67
2018-02-12T03:52:12.863Z,4.37
2018-02-12T03:54:46.685Z,3.80
2018-02-12T03:57:20.675Z,6.10
2018-02-12T03:59:55.089Z,3.07
2018-02-12T04:02:29.368Z,4.83
2018-02-12T04:05:04.414Z,3.60
2018-02-12T04:07:38.440Z,4.80
2018-02-12T04:10:13.223Z,3.00
2018-02-12T04:12:47.133Z,7.83
2018-02-12T04:15:21.768Z,4.77
2018-02-12T04:17:56.793Z,5.07
2018-02-12T04:20:30.506Z,5.63
2018-02-12T04:23:04.019Z,3.00
2018-02-12T04:25:38.532Z,5.33
2018-02-12T04:28:12.596Z,4.67
2018-02-12T04:30:46.751Z,3.07
2018-02-12T04:33:21.696Z,2.73
2018-02-12T04:35:55.598Z,2.17
2018-02-12T04:38:29.504Z,3.33
2018-02-12T04:41:03.577Z,2.60
2018-02-12T04:43:37.865Z,3.40
2018-02-12T04:46:12.891Z,5.93
2018-02-12T04:48:46.860Z,3.17
2018-02-12T04:51:21.787Z,5.67
2018-02-12T04:53:57.026Z,8.13
2018-02-12T04:56:31.059Z,10.17
2018-02-12T04:59:05.790Z,7.60
2018-02-12T05:01:40.807Z,8.77
2018-02-12T05:04:14.818Z,9.83
2018-02-12T05:06:49.961Z,4.57
2018-02-12T05:09:24.685Z,2.23
2018-02-12T05:11:58.774Z,4.47
2018-02-12T05:14:33.294Z,1.90
2018-02-12T05:17:07.548Z,4.20
2018-02-12T05:19:42.240Z,1.90
2018-02-12T05:22:16.536Z,3.47
2018-02-12T05:24:51.093Z,2.07
2018-02-12T05:27:26.310Z,3.10
2018-02-12T05:30:00.135Z,3.00
2018-02-12T05:32:33.931Z,4.20
2018-02-12T05:35:08.142Z,4.93
2018-02-12T05:37:42.085Z,5.50
2018-02-12T05:40:16.549Z,7.33
2018-02-12T05:42:50.602Z,3.73
2018-02-12T05:45:24.671Z,7.13
2018-02-12T05:47:58.532Z,5.77
2018-02-12T05:50:32.192Z,6.63
2018-02-12T05:53:06.221Z,3.30
2018-02-12T05:55:40.437Z,4.73
2018-02-12T05:58:15.132Z,6.77
2018-02-12T06:00:49.157Z,9.63
2018-02-12T06:03:24.143Z,3.17
2018-02-12T06:05:58.039Z,6.70
2018-02-12T06:08:32.216Z,6.27
2018-02-12T06:11:07.251Z,6.40
2018-02-12T06:13:41.065Z,6.40
2018-02-12T06:16:15.158Z,2.73
2018-02-12T06:18:48.767Z,5.17
2018-02-12T06:21:23.655Z,4.83
2018-02-12T06:23:58.498Z,3.87
2018-02-12T06:26:32.035Z,5.53
2018-02-12T06:29:06.231Z,4.13
2018-02-12T06:31:42.223Z,4.90
2018-02-12T06:34:17.037Z,5.97
2018-02-12T06:36:51.977Z,10.13
2018-02-12T06:39:26.719Z,7.20
2018-02-12T06:42:01.315Z,5.33
2018-02-12T06:44:35.921Z,3.93
2018-02-12T06:47:12.139Z,5.57
2018-02-12T06:49:46.935Z,3.90
2018-02-12T06:52:21.725Z,7.47
2018-02-12T06:54:55.806Z,3.63
2018-02-12T06:57:31.440Z,4.47
2018-02-12T07:00:07.425Z,6.93
2018-02-12T07:02:45.367Z,3.10
2018-02-12T07:05:19.554Z,3.87
2018-02-12T07:07:54.344Z,3.57
2018-02-12T07:10:27.999Z,5.43
2018-02-12T07:13:06.016Z,5.70
2018-02-12T07:15:41.027Z,4.10
2018-02-12T07:18:16.435Z,6.77
2018-02-12T07:20:51.382Z,3.03
2018-02-12T07:23:26.745Z,3.57
2018-02-12T07:26:02.095Z,4.67
2018-02-12T07:28:37.857Z,4.97
2018-02-12T07:31:12.376Z,3.40
2018-02-12T07:33:47.589Z,9.13
2018-02-12T07:36:21.911Z,3.73
2018-02-12T07:38:57.458Z,6.83
2018-02-12T07:41:33.228Z,4.23
2018-02-12T07:44:08.352Z,6.10
2018-02-12T07:46:42.558Z,4.17
2018-02-12T07:49:17.196Z,3.37
2018-02-12T07:51:52.010Z,3.67
2018-02-12T07:54:26.477Z,4.27
2018-02-12T07:57:00.385Z,7.93
2018-02-12T07:59:37.311Z,5.80
2018-02-12T08:02:12.258Z,5.90
2018-02-12T08:04:46.213Z,6.20
2018-02-12T08:07:19.987Z,6.00
2018-02-12T08:09:54.291Z,4.03
2018-02-12T08:12:29.522Z,4.27
2018-02-12T08:15:05.463Z,4.77
2018-02-12T08:17:40.909Z,3.73
2018-02-12T08:20:15.228Z,5.27
2018-02-12T08:22:49.653Z,6.73
2018-02-12T08:25:24.388Z,5.00
2018-02-12T08:27:58.252Z,4.60
2018-02-12T08:30:32.679Z,3.87
2018-02-12T08:33:06.667Z,3.57
2018-02-12T08:35:41.189Z,4.67
2018-02-12T08:38:16.063Z,3.90
2018-02-12T08:40:50.065Z,8.13
2018-02-12T08:43:24.804Z,19.80
2018-02-12T08:45:58.707Z,3.83
2018-02-12T08:48:32.683Z,4.07
2018-02-12T08:51:06.371Z,3.57
2018-02-12T08:53:40.930Z,6.30
2018-02-12T08:56:15.711Z,4.17
2018-02-12T08:58:49.453Z,4.40
2018-02-12T09:01:23.468Z,3.60
2018-02-12T09:03:57.926Z,3.80
2018-02-12T09:06:31.883Z,3.30
2018-02-12T09:09:06.800Z,3.10
2018-02-12T09:11:41.364Z,3.73
2018-02-12T09:14:16.068Z,2.67
2018-02-12T09:16:50.342Z,5.27
2018-02-12T09:19:24.739Z,2.93
2018-02-12T09:21:58.246Z,3.63
2018-02-12T09:24:31.916Z,3.00
2018-02-12T09:27:06.374Z,2.80
2018-02-12T09:29:39.931Z,3.17
2018-02-12T09:32:14.301Z,3.73
2018-02-12T09:34:48.264Z,5.23
2018-02-12T09:37:21.903Z,5.03
2018-02-12T09:39:55.587Z,2.83
2018-02-12T09:42:29.330Z,3.70
2018-02-12T09:45:03.692Z,2.70
2018-02-12T09:47:37.430Z,4.77
2018-02-12T09:50:11.055Z,2.60
2018-02-12T09:52:44.783Z,2.50
2018-02-12T09:55:18.463Z,2.47
2018-02-12T09:57:53.089Z,2.00
2018-02-12T10:00:29.253Z,3.37
2018-02-12T10:03:03.420Z,3.40
2018-02-12T10:05:37.307Z,2.97
2018-02-12T10:08:11.416Z,2.40
2018-02-12T10:10:45.417Z,2.73
2018-02-12T10:13:20.192Z,3.10
2018-02-12T10:15:54.215Z,2.30
2018-02-12T10:18:28.114Z,2.97
2018-02-12T10:21:01.888Z,2.90
2018-02-12T10:23:37.314Z,4.90
2018-02-12T10:26:11.647Z,5.43
2018-02-12T10:28:46.441Z,3.87
2018-02-12T10:31:22.375Z,8.70
2018-02-12T10:33:56.145Z,4.40
2018-02-12T10:36:33.000Z,2.87
2018-02-12T10:39:06.667Z,2.33
2018-02-12T10:41:41.126Z,3.27
2018-02-12T10:44:15.296Z,3.37
2018-02-12T10:46:49.836Z,3.30
2018-02-12T10:49:24.513Z,3.90
2018-02-12T10:51:58.603Z,3.30
2018-02-12T10:54:33.091Z,5.33
2018-02-12T10:57:06.811Z,4.80
2018-02-12T10:59:41.388Z,2.10
2018-02-12T11:02:15.133Z,3.23
2018-02-12T11:04:50.273Z,3.03
2018-02-12T11:07:24.363Z,2.60
2018-02-12T11:09:58.366Z,3.17
2018-02-12T11:12:32.343Z,2.20
2018-02-12T11:15:06.297Z,1.90
2018-02-12T11:17:41.194Z,2.17
2018-02-12T11:20:15.859Z,3.00
2018-02-12T11:22:50.211Z,4.07
2018-02-12T11:25:23.917Z,3.97
2018-02-12T11:27:57.706Z,1.80
2018-02-12T11:30:31.507Z,5.77
2018-02-12T11:33:06.631Z,2.50
2018-02-12T11:35:40.894Z,2.63
2018-02-12T11:38:14.647Z,5.03
2018-02-12T11:40:48.536Z,2.70
2018-02-12T11:43:23.039Z,3.83
2018-02-12T11:46:00.089Z,3.77
2018-02-12T11:48:34.587Z,3.37
2018-02-12T11:51:08.398Z,2.33
2018-02-12T11:53:42.491Z,4.23
2018-02-12T11:56:17.743Z,3.67
2018-02-12T11:58:51.748Z,4.83
2018-02-12T12:01:25.344Z,8.53
2018-02-12T12:03:59.495Z,2.43
2018-02-12T12:06:33.423Z,3.60
2018-02-12T12:09:07.665Z,3.43
2018-02-12T12:11:41.954Z,4.33
2018-02-12T12:14:16.679Z,3.33
2018-02-12T12:16:50.444Z,4.17
2018-02-12T12:19:24.207Z,5.10
2018-02-12T12:21:59.129Z,3.13
2018-02-12T12:24:32.767Z,4.80
2018-02-12T12:27:06.935Z,3.30
2018-02-12T12:29:40.678Z,3.67
2018-02-12T12:32:14.643Z,3.53
2018-02-12T12:34:48.363Z,3.57
2018-02-12T12:37:22.964Z,3.13
2018-02-12T12:39:57.467Z,1.60
2018-02-12T12:42:31.246Z,2.30
2018-02-12T12:45:05.131Z,2.37
2018-02-12T12:47:39.746Z,2.43
2018-02-12T12:50:14.387Z,1.77
2018-02-12T12:52:48.065Z,2.50
2018-02-12T12:55:21.678Z,3.60
2018-02-12T12:57:55.777Z,2.67
2018-02-12T13:00:32.048Z,2.23
2018-02-12T13:03:06.030Z,2.03
2018-02-12T13:05:39.881Z,3.20
2018-02-12T13:08:13.892Z,3.30
2018-02-12T13:10:48.809Z,2.47
2018-02-12T13:13:23.967Z,3.80
2018-02-12T13:15:57.594Z,2.03
2018-02-12T13:18:31.117Z,1.83
2018-02-12T13:21:05.780Z,2.20
2018-02-12T13:23:39.591Z,4.93
2018-02-12T13:26:13.891Z,1.90
2018-02-12T13:28:47.960Z,3.33
2018-02-12T13:31:21.566Z,2.57
2018-02-12T13:33:55.947Z,1.80
2018-02-12T13:36:30.730Z,3.17
2018-02-12T13:39:04.328Z,2.40
2018-02-12T13:41:37.877Z,3.03
2018-02-12T13:44:11.536Z,4.30
2018-02-12T13:46:44.971Z,4.10
2018-02-12T13:49:18.575Z,3.83
2018-02-12T13:51:52.300Z,4.00
2018-02-12T13:54:25.804Z,5.37
2018-02-12T13:56:59.354Z,2.27
2018-02-12T13:59:32.856Z,2.97
2018-02-12T14:02:06.387Z,2.37
2018-02-12T14:04:40.264Z,3.27
2018-02-12T14:07:13.907Z,3.13
2018-02-12T14:09:47.375Z,4.57
2018-02-12T14:12:20.962Z,1.83
2018-02-12T14:14:55.444Z,2.43
2018-02-12T14:17:29.098Z,2.83
2018-02-12T14:20:03.122Z,3.33
2018-02-12T14:22:36.615Z,3.87
2018-02-12T14:25:10.105Z,2.53
2018-02-12T14:27:43.767Z,4.03
2018-02-12T14:30:17.496Z,4.20
2018-02-12T14:32:51.335Z,2.47
2018-02-12T14:35:24.814Z,2.43
2018-02-12T14:37:58.505Z,2.40
2018-02-12T14:40:31.995Z,2.70
2018-02-12T14:43:05.527Z,3.87
2018-02-12T14:45:40.018Z,2.77
2018-02-12T14:48:13.676Z,3.60
2018-02-12T14:50:48.045Z,2.70
2018-02-12T14:53:21.631Z,3.07
2018-02-12T14:55:55.319Z,2.83
2018-02-12T14:58:29.587Z,2.87
2018-02-12T15:01:03.189Z,4.53
2018-02-12T15:03:36.992Z,6.03
2018-02-12T15:06:10.952Z,6.80
2018-02-12T15:08:44.939Z,5.90
2018-02-12T15:11:19.275Z,3.13
2018-02-12T15:13:54.369Z,3.53
2018-02-12T15:16:28.159Z,3.93
2018-02-12T15:19:02.454Z,4.13
2018-02-12T15:21:36.871Z,6.50
2018-02-12T15:24:10.561Z,6.47
2018-02-12T15:39:33.955Z,4.60
2018-02-12T15:42:07.658Z,3.00
2018-02-12T15:44:41.227Z,3.03
2018-02-12T15:47:14.799Z,3.00
2018-02-12T15:49:48.529Z,3.23
2018-02-12T15:52:22.331Z,3.53
2018-02-12T15:54:55.947Z,4.23
2018-02-12T15:57:29.483Z,7.37
2018-02-12T16:00:03.112Z,4.03
2018-02-12T16:02:36.665Z,4.33
2018-02-12T16:05:10.367Z,8.80
2018-02-12T16:07:43.890Z,8.73
2018-02-12T16:10:18.151Z,7.27
2018-02-12T16:12:51.632Z,5.53
2018-02-12T16:15:25.184Z,6.57
2018-02-12T16:17:58.774Z,5.70
2018-02-12T16:20:32.272Z,6.43
2018-02-12T16:23:05.771Z,7.23
2018-02-12T16:25:39.263Z,13.13
2018-02-12T16:28:12.858Z,10.40
2018-02-12T16:30:46.435Z,8.83
2018-02-12T16:33:19.967Z,5.57
2018-02-12T16:35:53.481Z,6.97
2018-02-12T16:38:27.193Z,9.00
2018-02-12T16:41:00.797Z,8.17
2018-02-12T16:43:35.171Z,8.43
2018-02-12T16:46:08.718Z,5.33
2018-02-12T16:48:42.445Z,10.73
2018-02-12T16:51:16.900Z,7.30
2018-02-12T16:53:50.454Z,6.63
2018-02-12T16:56:24.122Z,6.53
2018-02-12T16:58:57.663Z,5.53
2018-02-12T17:01:31.310Z,6.23
2018-02-12T17:04:05.042Z,6.87
2018-02-12T17:06:39.303Z,5.30
2018-02-12T17:09:13.796Z,10.63
2018-02-12T17:11:48.299Z,12.73
2018-02-12T17:14:22.303Z,12.83
2018-02-12T17:16:56.694Z,12.20
2018-02-12T17:19:30.744Z,18.40
2018-02-12T17:22:04.817Z,11.13
2018-02-12T17:24:38.556Z,9.63
2018-02-12T17:27:12.573Z,8.37
2018-02-12T17:29:46.361Z,15.43
2018-02-12T17:32:19.908Z,9.17
2018-02-12T17:34:53.435Z,11.30
2018-02-12T17:37:28.320Z,9.57
2018-02-12T17:40:02.902Z,7.33
2018-02-12T17:42:37.886Z,8.23
2018-02-12T17:45:12.215Z,6.53
2018-02-12T17:47:46.810Z,5.30
2018-02-12T17:50:21.695Z,5.40
2018-02-12T17:52:56.325Z,4.47
2018-02-12T17:55:30.301Z,4.67
2018-02-12T17:58:04.087Z,4.17
2018-02-12T18:00:38.076Z,3.07
2018-02-12T18:03:11.943Z,5.73
2018-02-12T18:05:46.543Z,5.60
2018-02-12T18:08:20.287Z,13.20
2018-02-12T18:10:56.006Z,10.63
2018-02-12T18:13:30.645Z,11.50
2018-02-12T18:16:04.449Z,7.83
2018-02-12T18:18:38.657Z,6.93
2018-02-12T18:21:12.507Z,9.30
2018-02-12T18:23:46.329Z,8.13
2018-02-12T18:26:21.028Z,9.47
2018-02-12T18:28:55.922Z,11.37
2018-02-12T18:31:30.816Z,7.03
2018-02-12T18:34:05.601Z,9.13
2018-02-12T18:36:39.598Z,11.17
2018-02-12T18:39:13.317Z,11.33
2018-02-12T18:41:48.461Z,10.03
2018-02-12T18:44:23.621Z,11.40
2018-02-12T18:46:57.623Z,12.07
2018-02-12T18:49:32.965Z,18.20
2018-02-12T18:52:06.952Z,17.40
2018-02-12T18:54:41.522Z,13.10
2018-02-12T18:57:16.215Z,9.53
2018-02-12T18:59:49.900Z,10.70
2018-02-12T19:02:23.829Z,10.17
2018-02-12T19:04:57.713Z,7.93
2018-02-12T19:07:31.419Z,7.97
2018-02-12T19:10:05.108Z,8.53
2018-02-12T19:12:38.859Z,9.20
2018-02-12T19:15:13.722Z,9.47
2018-02-12T19:17:48.034Z,8.17
2018-02-12T19:20:22.625Z,9.37
2018-02-12T19:22:56.707Z,7.17
2018-02-12T19:25:30.196Z,7.00
2018-02-12T19:28:04.671Z,6.53
2018-02-12T19:30:38.291Z,9.87
2018-02-12T19:33:11.928Z,10.10
2018-02-12T19:35:46.223Z,8.80
2018-02-12T19:38:20.668Z,7.67
2018-02-12T19:40:54.366Z,6.33
2018-02-12T19:43:29.475Z,9.77
2018-02-12T19:46:04.437Z,12.93
2018-02-12T19:48:39.035Z,7.70
2018-02-12T19:51:13.073Z,9.83
2018-02-12T19:53:46.675Z,10.03
2018-02-12T19:56:20.471Z,10.20
2018-02-12T19:58:55.010Z,7.90
2018-02-12T20:01:28.799Z,9.23
2018-02-12T20:04:03.676Z,8.77
2018-02-12T20:06:38.288Z,8.60
2018-02-12T20:09:11.975Z,12.00
2018-02-12T20:11:45.796Z,12.23
2018-02-12T20:14:20.466Z,11.03
2018-02-12T20:16:54.110Z,7.53
2018-02-12T20:19:27.915Z,10.43
2018-02-12T20:22:02.657Z,9.83
2018-02-12T20:24:37.406Z,12.60
2018-02-12T20:27:11.540Z,8.67
2018-02-12T20:29:45.952Z,7.17
2018-02-12T20:32:19.696Z,11.10
2018-02-12T20:34:53.383Z,11.70
2018-02-12T20:37:27.714Z,10.97
2018-02-12T20:40:02.188Z,8.93
2018-02-12T20:42:36.267Z,11.23
2018-02-12T20:45:10.144Z,11.97
2018-02-12T20:47:43.916Z,12.67
2018-02-12T20:50:17.668Z,11.67
2018-02-12T20:52:51.484Z,11.07
2018-02-12T20:55:25.136Z,7.67
2018-02-12T20:57:58.923Z,8.93
2018-02-12T21:00:32.731Z,9.80
2018-02-12T21:03:07.401Z,12.67
2018-02-12T21:05:41.209Z,10.03
2018-02-12T21:08:15.775Z,10.13
2018-02-12T21:10:49.347Z,15.97
2018-02-12T21:13:22.981Z,9.73
2018-02-12T21:15:56.538Z,9.13
2018-02-12T21:18:30.293Z,10.20
2018-02-12T21:21:07.610Z,9.90
2018-02-12T21:23:42.105Z,9.37
2018-02-12T21:26:15.843Z,12.03
2018-02-12T21:28:49.872Z,10.13
2018-02-12T21:31:24.559Z,13.63
2018-02-12T21:33:59.825Z,11.20
2018-02-12T21:36:33.576Z,9.17
2018-02-12T21:39:08.323Z,12.03
2018-02-12T21:41:42.025Z,11.60
2018-02-12T21:44:15.596Z,13.07
2018-02-12T21:46:49.388Z,14.40
2018-02-12T21:49:23.827Z,13.30
2018-02-12T21:51:58.340Z,12.70
2018-02-12T21:54:32.114Z,16.27
2018-02-12T21:57:06.657Z,16.37
2018-02-12T21:59:40.203Z,11.60
2018-02-12T22:02:14.803Z,12.60
2018-02-12T22:04:48.588Z,11.97
2018-02-12T22:07:22.366Z,12.43
2018-02-12T22:09:57.621Z,10.97
2018-02-12T22:12:31.976Z,18.50
2018-02-12T22:15:05.635Z,16.07
2018-02-12T22:17:40.241Z,13.13
2018-02-12T22:20:13.943Z,12.50
2018-02-12T22:22:47.602Z,10.17
2018-02-12T22:25:22.059Z,13.23
2018-02-12T22:27:55.667Z,16.70
2018-02-12T22:30:30.014Z,12.83
2018-02-12T22:33:03.754Z,12.63
2018-02-12T22:35:37.579Z,12.70
2018-02-12T22:38:12.135Z,14.60
2018-02-12T22:40:45.763Z,15.23
2018-02-12T22:43:19.627Z,13.17
2018-02-12T22:45:54.162Z,14.67
2018-02-12T22:48:27.944Z,13.40
2018-02-12T22:51:01.571Z,15.70
2018-02-12T22:53:35.200Z,16.83
2018-02-12T22:56:08.949Z,13.73
2018-02-12T22:58:42.522Z,13.37
2018-02-12T23:01:16.892Z,13.17
2018-02-12T23:03:50.496Z,15.97
2018-02-12T23:06:24.111Z,13.67
2018-02-12T23:08:58.097Z,19.07
2018-02-12T23:11:31.831Z,11.80
2018-02-12T23:14:05.437Z,13.60
2018-02-12T23:16:39.848Z,17.57
2018-02-12T23:19:13.694Z,13.33
2018-02-12T23:21:47.353Z,15.23
2018-02-12T23:24:21.953Z,16.77
2018-02-12T23:26:56.467Z,10.97
2018-02-12T23:29:30.075Z,10.63
2018-02-12T23:32:05.120Z,14.83
2018-02-12T23:34:38.772Z,12.43
2018-02-12T23:37:12.494Z,10.57
2018-02-12T23:39:47.206Z,11.77
2018-02-12T23:42:20.974Z,11.23
2018-02-12T23:44:55.432Z,15.87
2018-02-12T23:47:29.213Z,15.20
2018-02-12T23:50:03.765Z,14.20
2018-02-12T23:52:37.897Z,12.53
2018-02-12T23:55:11.753Z,11.20
2018-02-12T23:57:46.304Z,12.83
